sensor_id;sensor_type;location;lat;lon;timestamp;pressure;altitude;pressure_sealevel;temperature;humidity
54882;BME280;40775;51.448;4.742;2022-11-18T00:01:19;99419.16;;;8.92;nan
54882;BME280;40775;51.448;4.742;2022-11-18T00:03:48;99422.66;;;8.94;nan
54882;BME280;40775;51.448;4.742;2022-11-18T00:06:17;99420.03;;;8.91;nan
54882;BME280;40775;51.448;4.742;2022-11-18T00:08:46;99430.47;;;8.82;nan
54882;BME280;40775;51.448;4.742;2022-11-18T00:11:22;99428.72;;;8.87;nan
54882;BME280;40775;51.448;4.742;2022-11-18T00:14:17;99433.94;;;8.84;nan
54882;BME280;40775;51.448;4.742;2022-11-18T00:16:50;99425.22;;;8.85;nan
54882;BME280;40775;51.448;4.742;2022-11-18T00:19:20;99442.66;;;8.80;nan
54882;BME280;40775;51.448;4.742;2022-11-18T00:21:47;99435.69;;;8.81;nan
54882;BME280;40775;51.448;4.742;2022-11-18T00:24:15;99445.28;;;8.83;nan
54882;BME280;40775;51.448;4.742;2022-11-18T00:26:42;99440.88;;;8.76;nan
54882;BME280;40775;51.448;4.742;2022-11-18T00:29:10;99445.22;;;8.74;nan
54882;BME280;40775;51.448;4.742;2022-11-18T00:31:38;99442.66;;;8.77;nan
54882;BME280;40775;51.448;4.742;2022-11-18T00:34:06;99450.47;;;8.76;nan
54882;BME280;40775;51.448;4.742;2022-11-18T00:36:33;99446.09;;;8.72;nan
54882;BME280;40775;51.448;4.742;2022-11-18T00:39:01;99457.41;;;8.72;nan
54882;BME280;40775;51.448;4.742;2022-11-18T00:41:29;99451.38;;;8.79;nan
54882;BME280;40775;51.448;4.742;2022-11-18T00:44:17;99454.00;;;8.79;nan
54882;BME280;40775;51.448;4.742;2022-11-18T00:46:44;99447.91;;;8.80;nan
54882;BME280;40775;51.448;4.742;2022-11-18T00:49:11;99460.09;;;8.80;nan
54882;BME280;40775;51.448;4.742;2022-11-18T00:51:39;99460.03;;;8.72;nan
54882;BME280;40775;51.448;4.742;2022-11-18T00:54:06;99474.00;;;8.76;nan
54882;BME280;40775;51.448;4.742;2022-11-18T00:56:34;99468.81;;;8.80;nan
54882;BME280;40775;51.448;4.742;2022-11-18T00:59:01;99476.63;;;8.76;nan
54882;BME280;40775;51.448;4.742;2022-11-18T01:01:29;99482.78;;;8.78;nan
54882;BME280;40775;51.448;4.742;2022-11-18T01:03:56;99481.03;;;8.81;nan
54882;BME280;40775;51.448;4.742;2022-11-18T01:06:24;99486.28;;;8.81;nan
54882;BME280;40775;51.448;4.742;2022-11-18T01:08:51;99492.38;;;8.79;nan
54882;BME280;40775;51.448;4.742;2022-11-18T01:11:19;99489.78;;;8.86;nan
54882;BME280;40775;51.448;4.742;2022-11-18T01:14:05;99490.63;;;8.82;nan
54882;BME280;40775;51.448;4.742;2022-11-18T01:16:32;99496.75;;;8.81;nan
54882;BME280;40775;51.448;4.742;2022-11-18T01:19:00;99501.09;;;8.84;nan
54882;BME280;40775;51.448;4.742;2022-11-18T01:21:28;99501.97;;;8.84;nan
54882;BME280;40775;51.448;4.742;2022-11-18T01:23:55;99512.47;;;8.89;nan
54882;BME280;40775;51.448;4.742;2022-11-18T01:26:23;99515.97;;;8.91;nan
54882;BME280;40775;51.448;4.742;2022-11-18T01:28:55;99516.81;;;8.85;nan
54882;BME280;40775;51.448;4.742;2022-11-18T01:31:23;99520.31;;;8.87;nan
54882;BME280;40775;51.448;4.742;2022-11-18T01:33:50;99534.28;;;8.91;nan
54882;BME280;40775;51.448;4.742;2022-11-18T01:36:23;99525.56;;;8.89;nan
54882;BME280;40775;51.448;4.742;2022-11-18T01:38:52;99530.78;;;8.86;nan
54882;BME280;40775;51.448;4.742;2022-11-18T01:41:22;99529.88;;;8.82;nan
54882;BME280;40775;51.448;4.742;2022-11-18T01:43:57;99542.09;;;8.83;nan
54882;BME280;40775;51.448;4.742;2022-11-18T01:46:27;99543.81;;;8.78;nan
54882;BME280;40775;51.448;4.742;2022-11-18T01:49:10;99538.59;;;8.78;nan
54882;BME280;40775;51.448;4.742;2022-11-18T01:51:52;99544.63;;;8.74;nan
54882;BME280;40775;51.448;4.742;2022-11-18T01:54:30;99547.25;;;8.74;nan
54882;BME280;40775;51.448;4.742;2022-11-18T01:57:04;99546.34;;;8.71;nan
54882;BME280;40775;51.448;4.742;2022-11-18T01:59:36;99555.94;;;8.70;nan
54882;BME280;40775;51.448;4.742;2022-11-18T02:02:11;99563.78;;;8.68;nan
54882;BME280;40775;51.448;4.742;2022-11-18T02:04:43;99562.97;;;8.76;nan
54882;BME280;40775;51.448;4.742;2022-11-18T02:07:12;99566.44;;;8.73;nan
54882;BME280;40775;51.448;4.742;2022-11-18T02:09:40;99568.22;;;8.77;nan
54882;BME280;40775;51.448;4.742;2022-11-18T02:12:08;99564.75;;;8.78;nan
54882;BME280;40775;51.448;4.742;2022-11-18T02:14:39;99572.56;;;8.75;nan
54882;BME280;40775;51.448;4.742;2022-11-18T02:17:20;99562.97;;;8.76;nan
54882;BME280;40775;51.448;4.742;2022-11-18T02:39:06;99596.94;;;8.73;nan
54882;BME280;40775;51.448;4.742;2022-11-18T02:41:36;99597.84;;;8.75;nan
54882;BME280;40775;51.448;4.742;2022-11-18T02:44:10;99602.25;;;8.77;nan
54882;BME280;40775;51.448;4.742;2022-11-18T02:46:41;99606.59;;;8.77;nan
54882;BME280;40775;51.448;4.742;2022-11-18T02:49:22;99603.09;;;8.76;nan
54882;BME280;40775;51.448;4.742;2022-11-18T02:51:54;99600.44;;;8.73;nan
54882;BME280;40775;51.448;4.742;2022-11-18T02:54:24;99603.94;;;8.74;nan
54882;BME280;40775;51.448;4.742;2022-11-18T02:56:53;99599.53;;;8.70;nan
54882;BME280;40775;51.448;4.742;2022-11-18T02:59:21;99602.16;;;8.71;nan
54882;BME280;40775;51.448;4.742;2022-11-18T03:01:48;99609.16;;;8.71;nan
54882;BME280;40775;51.448;4.742;2022-11-18T03:04:17;99604.78;;;8.68;nan
54882;BME280;40775;51.448;4.742;2022-11-18T03:09:45;99615.25;;;8.71;nan
54882;BME280;40775;51.448;4.742;2022-11-18T03:12:33;99625.69;;;8.65;nan
54882;BME280;40775;51.448;4.742;2022-11-18T03:18:12;99620.41;;;8.60;nan
54882;BME280;40775;51.448;4.742;2022-11-18T03:21:10;99632.63;;;8.60;nan
54882;BME280;40775;51.448;4.742;2022-11-18T03:23:39;99633.53;;;8.65;nan
54882;BME280;40775;51.448;4.742;2022-11-18T03:29:21;99637.84;;;8.61;nan
54882;BME280;40775;51.448;4.742;2022-11-18T03:31:57;99642.19;;;8.58;nan
54882;BME280;40775;51.448;4.742;2022-11-18T03:34:31;99647.44;;;8.62;nan
54882;BME280;40775;51.448;4.742;2022-11-18T03:37:02;99647.41;;;8.58;nan
54882;BME280;40775;51.448;4.742;2022-11-18T03:39:41;99665.72;;;8.56;nan
54882;BME280;40775;51.448;4.742;2022-11-18T03:42:18;99654.38;;;8.56;nan
54882;BME280;40775;51.448;4.742;2022-11-18T03:44:52;99652.66;;;8.59;nan
54882;BME280;40775;51.448;4.742;2022-11-18T03:47:25;99658.78;;;8.60;nan
54882;BME280;40775;51.448;4.742;2022-11-18T03:49:59;99674.41;;;8.54;nan
54882;BME280;40775;51.448;4.742;2022-11-18T03:52:31;99676.16;;;8.55;nan
54882;BME280;40775;51.448;4.742;2022-11-18T03:55:07;99667.41;;;8.51;nan
54882;BME280;40775;51.448;4.742;2022-11-18T04:00:27;99669.06;;;8.45;nan
54882;BME280;40775;51.448;4.742;2022-11-18T04:02:56;99681.22;;;8.40;nan
54882;BME280;40775;51.448;4.742;2022-11-18T04:05:23;99683.00;;;8.44;nan
54882;BME280;40775;51.448;4.742;2022-11-18T04:07:53;99686.44;;;8.38;nan
54882;BME280;40775;51.448;4.742;2022-11-18T04:10:44;99687.38;;;8.45;nan
54882;BME280;40775;51.448;4.742;2022-11-18T04:13:33;99690.00;;;8.45;nan
54882;BME280;40775;51.448;4.742;2022-11-18T04:16:02;99694.34;;;8.46;nan
54882;BME280;40775;51.448;4.742;2022-11-18T04:18:30;99689.09;;;8.43;nan
54882;BME280;40775;51.448;4.742;2022-11-18T04:20:57;99696.88;;;8.36;nan
54882;BME280;40775;51.448;4.742;2022-11-18T04:23:25;99690.78;;;8.38;nan
54882;BME280;40775;51.448;4.742;2022-11-18T04:25:52;99693.34;;;8.33;nan
54882;BME280;40775;51.448;4.742;2022-11-18T04:28:20;99703.00;;;8.37;nan
54882;BME280;40775;51.448;4.742;2022-11-18T04:30:47;99702.13;;;8.38;nan
54882;BME280;40775;51.448;4.742;2022-11-18T04:33:14;99708.13;;;8.31;nan
54882;BME280;40775;51.448;4.742;2022-11-18T04:35:46;99712.56;;;8.36;nan
54882;BME280;40775;51.448;4.742;2022-11-18T04:38:13;99713.34;;;8.29;nan
54882;BME280;40775;51.448;4.742;2022-11-18T04:40:46;99721.19;;;8.29;nan
54882;BME280;40775;51.448;4.742;2022-11-18T04:43:14;99721.22;;;8.32;nan
54882;BME280;40775;51.448;4.742;2022-11-18T04:45:41;99723.78;;;8.28;nan
54882;BME280;40775;51.448;4.742;2022-11-18T04:48:09;99726.38;;;8.26;nan
54882;BME280;40775;51.448;4.742;2022-11-18T04:50:36;99732.50;;;8.28;nan
54882;BME280;40775;51.448;4.742;2022-11-18T04:53:03;99728.97;;;8.23;nan
54882;BME280;40775;51.448;4.742;2022-11-18T04:55:31;99731.66;;;8.29;nan
54882;BME280;40775;51.448;4.742;2022-11-18T04:58:01;99740.38;;;8.30;nan
54882;BME280;40775;51.448;4.742;2022-11-18T05:00:28;99746.50;;;8.32;nan
54882;BME280;40775;51.448;4.742;2022-11-18T05:02:56;99744.81;;;8.34;nan
54882;BME280;40775;51.448;4.742;2022-11-18T05:05:23;99746.50;;;8.32;nan
54882;BME280;40775;51.448;4.742;2022-11-18T05:07:51;99748.19;;;8.28;nan
54882;BME280;40775;51.448;4.742;2022-11-18T05:10:18;99755.13;;;8.25;nan
54882;BME280;40775;51.448;4.742;2022-11-18T05:12:46;99752.50;;;8.23;nan
54882;BME280;40775;51.448;4.742;2022-11-18T05:15:17;99763.88;;;8.28;nan
54882;BME280;40775;51.448;4.742;2022-11-18T05:17:46;99767.31;;;8.24;nan
54882;BME280;40775;51.448;4.742;2022-11-18T05:20:13;99768.22;;;8.26;nan
54882;BME280;40775;51.448;4.742;2022-11-18T05:22:41;99769.06;;;8.25;nan
54882;BME280;40775;51.448;4.742;2022-11-18T05:25:09;99769.09;;;8.27;nan
54882;BME280;40775;51.448;4.742;2022-11-18T05:27:36;99771.72;;;8.28;nan
54882;BME280;40775;51.448;4.742;2022-11-18T05:30:04;99778.69;;;8.26;nan
54882;BME280;40775;51.448;4.742;2022-11-18T05:32:32;99770.78;;;8.22;nan
54882;BME280;40775;51.448;4.742;2022-11-18T05:34:59;99783.00;;;8.23;nan
54882;BME280;40775;51.448;4.742;2022-11-18T05:37:27;99781.25;;;8.22;nan
54882;BME280;40775;51.448;4.742;2022-11-18T05:39:54;99789.97;;;8.22;nan
54882;BME280;40775;51.448;4.742;2022-11-18T05:42:22;99782.13;;;8.24;nan
54882;BME280;40775;51.448;4.742;2022-11-18T05:45:19;99790.88;;;8.27;nan
54882;BME280;40775;51.448;4.742;2022-11-18T05:47:46;99791.66;;;8.20;nan
54882;BME280;40775;51.448;4.742;2022-11-18T05:50:26;99789.91;;;8.21;nan
54882;BME280;40775;51.448;4.742;2022-11-18T05:52:53;99793.44;;;8.23;nan
54882;BME280;40775;51.448;4.742;2022-11-18T05:55:24;99802.97;;;8.19;nan
54882;BME280;40775;51.448;4.742;2022-11-18T05:57:54;99808.16;;;8.16;nan
54882;BME280;40775;51.448;4.742;2022-11-18T06:00:21;99810.75;;;8.16;nan
54882;BME280;40775;51.448;4.742;2022-11-18T06:02:51;99809.03;;;8.18;nan
54882;BME280;40775;51.448;4.742;2022-11-18T06:05:22;99810.78;;;8.18;nan
54882;BME280;40775;51.448;4.742;2022-11-18T06:07:50;99812.47;;;8.13;nan
54882;BME280;40775;51.448;4.742;2022-11-18T06:10:26;99822.91;;;8.13;nan
54882;BME280;40775;51.448;4.742;2022-11-18T06:12:57;99827.25;;;8.11;nan
54882;BME280;40775;51.448;4.742;2022-11-18T06:15:32;99833.25;;;8.02;nan
54882;BME280;40775;51.448;4.742;2022-11-18T06:20:44;99825.31;;;7.96;nan
54882;BME280;40775;51.448;4.742;2022-11-18T06:23:12;99834.78;;;7.91;nan
54882;BME280;40775;51.448;4.742;2022-11-18T06:25:40;99844.38;;;7.92;nan
54882;BME280;40775;51.448;4.742;2022-11-18T06:28:10;99844.38;;;7.92;nan
54882;BME280;40775;51.448;4.742;2022-11-18T06:30:38;99857.38;;;7.86;nan
54882;BME280;40775;51.448;4.742;2022-11-18T06:33:06;99864.34;;;7.87;nan
54882;BME280;40775;51.448;4.742;2022-11-18T06:35:34;99861.75;;;7.87;nan
54882;BME280;40775;51.448;4.742;2022-11-18T06:38:01;99868.75;;;7.91;nan
54882;BME280;40775;51.448;4.742;2022-11-18T06:40:29;99873.03;;;7.86;nan
54882;BME280;40775;51.448;4.742;2022-11-18T06:43:08;99868.63;;;7.82;nan
54882;BME280;40775;51.448;4.742;2022-11-18T06:45:58;99873.28;;;9.40;nan
54882;BME280;40775;51.448;4.742;2022-11-18T06:48:44;99871.72;;;11.19;nan
54882;BME280;40775;51.448;4.742;2022-11-18T06:51:12;99861.28;;;11.96;nan
54882;BME280;40775;51.448;4.742;2022-11-18T06:53:40;99838.31;;;12.53;nan
54882;BME280;40775;51.448;4.742;2022-11-18T06:56:09;99832.50;;;8.79;nan
54882;BME280;40775;51.448;4.742;2022-11-18T06:58:38;99858.50;;;8.03;nan
54882;BME280;40775;51.448;4.742;2022-11-18T07:01:30;99871.28;;;7.85;nan
54882;BME280;40775;51.448;4.742;2022-11-18T07:03:58;99873.69;;;7.71;nan
54882;BME280;40775;51.448;4.742;2022-11-18T07:06:28;99876.16;;;7.63;nan
54882;BME280;40775;51.448;4.742;2022-11-18T07:08:58;99891.84;;;7.63;nan
54882;BME280;40775;51.448;4.742;2022-11-18T07:11:27;99887.47;;;7.62;nan
54882;BME280;40775;51.448;4.742;2022-11-18T07:13:54;99896.09;;;7.58;nan
54882;BME280;40775;51.448;4.742;2022-11-18T07:16:27;99900.56;;;7.64;nan
54882;BME280;40775;51.448;4.742;2022-11-18T07:18:55;99892.59;;;7.56;nan
54882;BME280;40775;51.448;4.742;2022-11-18T07:21:25;99913.44;;;7.53;nan
54882;BME280;40775;51.448;4.742;2022-11-18T07:23:54;99905.53;;;7.49;nan
54882;BME280;40775;51.448;4.742;2022-11-18T07:26:21;99911.69;;;7.54;nan
54882;BME280;40775;51.448;4.742;2022-11-18T07:28:49;99916.06;;;7.55;nan
54882;BME280;40775;51.448;4.742;2022-11-18T07:31:18;99923.84;;;7.50;nan
54882;BME280;40775;51.448;4.742;2022-11-18T07:33:46;99925.66;;;7.56;nan
54882;BME280;40775;51.448;4.742;2022-11-18T07:36:19;99924.78;;;7.55;nan
54882;BME280;40775;51.448;4.742;2022-11-18T07:38:48;99934.41;;;7.58;nan
54882;BME280;40775;51.448;4.742;2022-11-18T07:43:45;99943.13;;;7.60;nan
54882;BME280;40775;51.448;4.742;2022-11-18T07:46:20;99948.44;;;7.64;nan
54882;BME280;40775;51.448;4.742;2022-11-18T07:48:49;99959.00;;;7.69;nan
54882;BME280;40775;51.448;4.742;2022-11-18T07:51:19;99961.59;;;7.67;nan
54882;BME280;40775;51.448;4.742;2022-11-18T07:53:47;99967.63;;;7.66;nan
54882;BME280;40775;51.448;4.742;2022-11-18T07:56:16;99971.19;;;7.68;nan
54882;BME280;40775;51.448;4.742;2022-11-18T07:58:44;99970.44;;;7.75;nan
54882;BME280;40775;51.448;4.742;2022-11-18T08:01:15;99965.31;;;7.83;nan
54882;BME280;40775;51.448;4.742;2022-11-18T08:03:44;99975.72;;;7.80;nan
54882;BME280;40775;51.448;4.742;2022-11-18T08:06:13;99982.72;;;7.81;nan
54882;BME280;40775;51.448;4.742;2022-11-18T08:08:41;99978.44;;;7.86;nan
54882;BME280;40775;51.448;4.742;2022-11-18T08:11:12;99993.34;;;7.93;nan
54882;BME280;40775;51.448;4.742;2022-11-18T08:13:45;99999.63;;;8.01;nan
54882;BME280;40775;51.448;4.742;2022-11-18T08:16:15;100003.16;;;8.05;nan
54882;BME280;40775;51.448;4.742;2022-11-18T08:18:43;100000.59;;;8.08;nan
54882;BME280;40775;51.448;4.742;2022-11-18T08:21:11;100010.25;;;8.12;nan
54882;BME280;40775;51.448;4.742;2022-11-18T08:23:39;100005.91;;;8.14;nan
54882;BME280;40775;51.448;4.742;2022-11-18T08:26:10;100004.34;;;8.22;nan
54882;BME280;40775;51.448;4.742;2022-11-18T08:28:38;100011.38;;;8.26;nan
54882;BME280;40775;51.448;4.742;2022-11-18T08:31:18;100017.53;;;8.31;nan
54882;BME280;40775;51.448;4.742;2022-11-18T08:33:45;100018.59;;;8.41;nan
54882;BME280;40775;51.448;4.742;2022-11-18T08:36:18;100026.53;;;8.49;nan
54882;BME280;40775;51.448;4.742;2022-11-18T08:38:47;100028.41;;;8.54;nan
54882;BME280;40775;51.448;4.742;2022-11-18T08:41:18;100027.66;;;8.64;nan
54882;BME280;40775;51.448;4.742;2022-11-18T08:43:47;100019.78;;;8.61;nan
54882;BME280;40775;51.448;4.742;2022-11-18T08:46:15;100032.03;;;8.64;nan
54882;BME280;40775;51.448;4.742;2022-11-18T08:48:42;100032.88;;;8.63;nan
54882;BME280;40775;51.448;4.742;2022-11-18T08:51:13;100041.69;;;8.68;nan
54882;BME280;40775;51.448;4.742;2022-11-18T08:53:40;100038.25;;;8.74;nan
54882;BME280;40775;51.448;4.742;2022-11-18T08:56:14;100036.53;;;8.76;nan
54882;BME280;40775;51.448;4.742;2022-11-18T08:58:42;100047.97;;;8.81;nan
54882;BME280;40775;51.448;4.742;2022-11-18T09:01:10;100048.03;;;8.85;nan
54882;BME280;40775;51.448;4.742;2022-11-18T09:03:38;100043.81;;;8.96;nan
54882;BME280;40775;51.448;4.742;2022-11-18T09:06:12;100052.56;;;8.97;nan
54882;BME280;40775;51.448;4.742;2022-11-18T09:08:41;100061.50;;;9.11;nan
54882;BME280;40775;51.448;4.742;2022-11-18T09:11:15;100060.66;;;9.14;nan
54882;BME280;40775;51.448;4.742;2022-11-18T09:13:43;100056.38;;;9.20;nan
54882;BME280;40775;51.448;4.742;2022-11-18T09:16:32;100062.53;;;9.24;nan
54882;BME280;40775;51.448;4.742;2022-11-18T09:19:00;100070.38;;;9.22;nan
54882;BME280;40775;51.448;4.742;2022-11-18T09:21:44;100068.66;;;9.26;nan
54882;BME280;40775;51.448;4.742;2022-11-18T09:24:12;100073.88;;;9.24;nan
54882;BME280;40775;51.448;4.742;2022-11-18T09:26:39;100073.91;;;9.27;nan
54882;BME280;40775;51.448;4.742;2022-11-18T09:29:07;100077.41;;;9.28;nan
54882;BME280;40775;51.448;4.742;2022-11-18T09:31:35;100085.34;;;9.33;nan
54882;BME280;40775;51.448;4.742;2022-11-18T09:34:02;100083.66;;;9.36;nan
54882;BME280;40775;51.448;4.742;2022-11-18T09:36:29;100087.22;;;9.41;nan
54882;BME280;40775;51.448;4.742;2022-11-18T09:39:02;100090.69;;;9.40;nan
54882;BME280;40775;51.448;4.742;2022-11-18T09:41:48;100091.59;;;9.42;nan
54882;BME280;40775;51.448;4.742;2022-11-18T09:47:32;100095.16;;;9.50;nan
54882;BME280;40775;51.448;4.742;2022-11-18T09:50:20;100098.66;;;9.51;nan
54882;BME280;40775;51.448;4.742;2022-11-18T09:53:22;100096.97;;;9.54;nan
54882;BME280;40775;51.448;4.742;2022-11-18T09:55:51;100098.69;;;9.54;nan
54882;BME280;40775;51.448;4.742;2022-11-18T10:00:55;100098.72;;;9.55;nan
54882;BME280;40775;51.448;4.742;2022-11-18T10:03:27;100108.47;;;9.66;nan
54882;BME280;40775;51.448;4.742;2022-11-18T10:06:09;100113.69;;;9.63;nan
54882;BME280;40775;51.448;4.742;2022-11-18T10:09:01;100115.41;;;9.60;nan
54882;BME280;40775;51.448;4.742;2022-11-18T10:17:33;100125.97;;;9.67;nan
54882;BME280;40775;51.448;4.742;2022-11-18T10:20:20;100135.53;;;9.63;nan
54882;BME280;40775;51.448;4.742;2022-11-18T10:23:16;100132.91;;;9.63;nan
54882;BME280;40775;51.448;4.742;2022-11-18T10:25:44;100145.16;;;9.66;nan
54882;BME280;40775;51.448;4.742;2022-11-18T10:28:20;100143.50;;;9.74;nan
54882;BME280;40775;51.448;4.742;2022-11-18T10:30:48;100146.22;;;9.81;nan
54882;BME280;40775;51.448;4.742;2022-11-18T10:35:49;100153.41;;;9.96;nan
54882;BME280;40775;51.448;4.742;2022-11-18T10:38:19;100156.09;;;10.02;nan
54882;BME280;40775;51.448;4.742;2022-11-18T10:40:58;100148.28;;;10.08;nan
54882;BME280;40775;51.448;4.742;2022-11-18T10:43:52;100149.16;;;10.09;nan
54882;BME280;40775;51.448;4.742;2022-11-18T10:46:34;100145.78;;;10.19;nan
54882;BME280;40775;51.448;4.742;2022-11-18T10:52:07;100150.22;;;10.23;nan
54882;BME280;40775;51.448;4.742;2022-11-18T10:54:36;100144.03;;;10.19;nan
54882;BME280;40775;51.448;4.742;2022-11-18T10:57:19;100144.13;;;10.26;nan
54882;BME280;40775;51.448;4.742;2022-11-18T10:59:50;100147.66;;;10.29;nan
54882;BME280;40775;51.448;4.742;2022-11-18T11:02:39;100149.44;;;10.32;nan
54882;BME280;40775;51.448;4.742;2022-11-18T11:05:19;100156.47;;;10.37;nan
54882;BME280;40775;51.448;4.742;2022-11-18T11:08:05;100150.44;;;10.43;nan
54882;BME280;40775;51.448;4.742;2022-11-18T11:11:02;100161.84;;;10.45;nan
54882;BME280;40775;51.448;4.742;2022-11-18T11:13:30;100163.59;;;10.46;nan
54882;BME280;40775;51.448;4.742;2022-11-18T11:16:01;100153.97;;;10.45;nan
54882;BME280;40775;51.448;4.742;2022-11-18T11:18:33;100149.63;;;10.50;nan
54882;BME280;40775;51.448;4.742;2022-11-18T11:23:37;100168.03;;;10.53;nan
54882;BME280;40775;51.448;4.742;2022-11-18T11:29:44;100161.03;;;10.55;nan
54882;BME280;40775;51.448;4.742;2022-11-18T11:32:40;100169.81;;;10.57;nan
54882;BME280;40775;51.448;4.742;2022-11-18T11:35:16;100175.94;;;10.59;nan
54882;BME280;40775;51.448;4.742;2022-11-18T11:37:58;100171.56;;;10.60;nan
54882;BME280;40775;51.448;4.742;2022-11-18T11:46:14;100179.50;;;10.66;nan
54882;BME280;40775;51.448;4.742;2022-11-18T11:51:53;100182.13;;;10.66;nan
54882;BME280;40775;51.448;4.742;2022-11-18T11:54:55;100191.81;;;10.68;nan
54882;BME280;40775;51.448;4.742;2022-11-18T12:00:12;100181.31;;;10.70;nan
54882;BME280;40775;51.448;4.742;2022-11-18T12:02:57;100197.94;;;10.70;nan
54882;BME280;40775;51.448;4.742;2022-11-18T12:05:35;100190.94;;;10.71;nan
54882;BME280;40775;51.448;4.742;2022-11-18T12:08:15;100190.94;;;10.71;nan
54882;BME280;40775;51.448;4.742;2022-11-18T12:13:50;100192.72;;;10.73;nan
54882;BME280;40775;51.448;4.742;2022-11-18T12:19:17;100199.75;;;10.77;nan
54882;BME280;40775;51.448;4.742;2022-11-18T12:26:45;100208.56;;;10.84;nan
54882;BME280;40775;51.448;4.742;2022-11-18T12:29:37;100209.41;;;10.81;nan
54882;BME280;40775;51.448;4.742;2022-11-18T12:32:37;100219.03;;;10.81;nan
54882;BME280;40775;51.448;4.742;2022-11-18T12:35:26;100215.53;;;10.82;nan
54882;BME280;40775;51.448;4.742;2022-11-18T12:40:38;100211.16;;;10.82;nan
54882;BME280;40775;51.448;4.742;2022-11-18T12:52:06;100226.91;;;10.81;nan
54882;BME280;40775;51.448;4.742;2022-11-18T12:54:52;100223.44;;;10.83;nan
54882;BME280;40775;51.448;4.742;2022-11-18T12:57:27;100222.59;;;10.88;nan
54882;BME280;40775;51.448;4.742;2022-11-18T12:59:56;100227.81;;;10.84;nan
54882;BME280;40775;51.448;4.742;2022-11-18T13:02:26;100226.94;;;10.86;nan
54882;BME280;40775;51.448;4.742;2022-11-18T13:05:18;100223.44;;;10.83;nan
54882;BME280;40775;51.448;4.742;2022-11-18T13:14:00;100230.41;;;10.81;nan
54882;BME280;40775;51.448;4.742;2022-11-18T13:16:48;100230.44;;;10.84;nan
54882;BME280;40775;51.448;4.742;2022-11-18T13:19:34;100234.81;;;10.84;nan
54882;BME280;40775;51.448;4.742;2022-11-18T13:22:02;100230.44;;;10.84;nan
54882;BME280;40775;51.448;4.742;2022-11-18T13:24:51;100230.44;;;10.84;nan
54882;BME280;40775;51.448;4.742;2022-11-18T13:30:13;100238.31;;;10.86;nan
54882;BME280;40775;51.448;4.742;2022-11-18T13:32:46;100240.09;;;10.89;nan
54882;BME280;40775;51.448;4.742;2022-11-18T13:35:16;100245.38;;;10.90;nan
54882;BME280;40775;51.448;4.742;2022-11-18T13:38:02;100244.47;;;10.87;nan
54882;BME280;40775;51.448;4.742;2022-11-18T13:40:52;100247.09;;;10.88;nan
54882;BME280;40775;51.448;4.742;2022-11-18T13:43:35;100245.31;;;10.86;nan
54882;BME280;40775;51.448;4.742;2022-11-18T13:46:11;100253.22;;;10.89;nan
54882;BME280;40775;51.448;4.742;2022-11-18T13:48:54;100247.09;;;10.90;nan
54882;BME280;40775;51.448;4.742;2022-11-18T13:51:23;100247.09;;;10.87;nan
54882;BME280;40775;51.448;4.742;2022-11-18T13:53:50;100253.19;;;10.86;nan
54882;BME280;40775;51.448;4.742;2022-11-18T13:56:24;100255.81;;;10.84;nan
54882;BME280;40775;51.448;4.742;2022-11-18T13:59:00;100249.69;;;10.83;nan
54882;BME280;40775;51.448;4.742;2022-11-18T14:01:44;100257.56;;;10.83;nan
54882;BME280;40775;51.448;4.742;2022-11-18T14:04:19;100256.66;;;10.81;nan
54882;BME280;40775;51.448;4.742;2022-11-18T14:06:47;100257.53;;;10.80;nan
54882;BME280;40775;51.448;4.742;2022-11-18T14:09:31;100263.69;;;10.84;nan
54882;BME280;40775;51.448;4.742;2022-11-18T14:14:47;100259.31;;;10.83;nan
54882;BME280;40775;51.448;4.742;2022-11-18T14:17:20;100269.81;;;10.83;nan
54882;BME280;40775;51.448;4.742;2022-11-18T14:19:50;100278.56;;;10.83;nan
54882;BME280;40775;51.448;4.742;2022-11-18T14:22:19;100275.94;;;10.83;nan
54882;BME280;40775;51.448;4.742;2022-11-18T14:27:41;100285.56;;;10.83;nan
54882;BME280;40775;51.448;4.742;2022-11-18T14:30:29;100280.31;;;10.81;nan
54882;BME280;40775;51.448;4.742;2022-11-18T14:33:18;100275.06;;;10.81;nan
54882;BME280;40775;51.448;4.742;2022-11-18T14:35:54;100279.44;;;10.82;nan
54882;BME280;40775;51.448;4.742;2022-11-18T14:41:18;100286.44;;;10.83;nan
54882;BME280;40775;51.448;4.742;2022-11-18T14:44:10;100293.44;;;10.81;nan
54882;BME280;40775;51.448;4.742;2022-11-18T14:46:42;100296.94;;;10.82;nan
54882;BME280;40775;51.448;4.742;2022-11-18T14:49:14;100305.69;;;10.81;nan
54882;BME280;40775;51.448;4.742;2022-11-18T14:51:44;100310.94;;;10.81;nan
54882;BME280;40775;51.448;4.742;2022-11-18T14:54:13;100309.19;;;10.81;nan
54882;BME280;40775;51.448;4.742;2022-11-18T14:56:43;100311.78;;;10.80;nan
54882;BME280;40775;51.448;4.742;2022-11-18T14:59:13;100303.91;;;10.78;nan
54882;BME280;40775;51.448;4.742;2022-11-18T15:01:42;100306.53;;;10.78;nan
54882;BME280;40775;51.448;4.742;2022-11-18T15:04:11;100318.78;;;10.79;nan
54882;BME280;40775;51.448;4.742;2022-11-18T15:06:39;100310.88;;;10.76;nan
54882;BME280;40775;51.448;4.742;2022-11-18T15:09:07;100324.03;;;10.78;nan
54882;BME280;40775;51.448;4.742;2022-11-18T15:11:35;100332.78;;;10.78;nan
54882;BME280;40775;51.448;4.742;2022-11-18T15:14:02;100325.78;;;10.77;nan
54882;BME280;40775;51.448;4.742;2022-11-18T15:16:32;100317.88;;;10.74;nan
54882;BME280;40775;51.448;4.742;2022-11-18T15:19:02;100325.72;;;10.73;nan
54882;BME280;40775;51.448;4.742;2022-11-18T15:21:30;100328.38;;;10.74;nan
54882;BME280;40775;51.448;4.742;2022-11-18T15:23:58;100331.84;;;10.73;nan
54882;BME280;40775;51.448;4.742;2022-11-18T15:26:28;100332.72;;;10.72;nan
54882;BME280;40775;51.448;4.742;2022-11-18T15:28:57;100345.81;;;10.69;nan
54882;BME280;40775;51.448;4.742;2022-11-18T15:31:24;100344.97;;;10.72;nan
54882;BME280;40775;51.448;4.742;2022-11-18T15:33:52;100338.81;;;10.70;nan
54882;BME280;40775;51.448;4.742;2022-11-18T15:36:25;100340.59;;;10.72;nan
54882;BME280;40775;51.448;4.742;2022-11-18T15:38:53;100344.09;;;10.71;nan
54882;BME280;40775;51.448;4.742;2022-11-18T15:41:26;100344.06;;;10.68;nan
54882;BME280;40775;51.448;4.742;2022-11-18T15:43:55;100354.56;;;10.68;nan
54882;BME280;40775;51.448;4.742;2022-11-18T15:46:24;100350.13;;;10.67;nan